CDT,Max TemperatureF,Mean TemperatureF,Min TemperatureF,Max Dew PointF,MeanDew PointF,Min DewpointF,Max Humidity, Mean Humidity, Min Humidity, Max Sea Level PressureIn, Mean Sea Level PressureIn, Min Sea Level PressureIn, Max VisibilityMiles, Mean VisibilityMiles, Min VisibilityMiles, Max Wind SpeedMPH, Mean Wind SpeedMPH, Max Gust SpeedMPH,PrecipitationIn, CloudCover, Events, WindDirDegrees
2013-8-1,84,72,59,66,62,57,94,71,40,30.09,30.03,29.94,10,9,0,8,4,,0.00,1,Fog,250
2013-8-2,85,76,67,68,64,60,88,70,49,29.99,29.93,29.89,10,10,10,10,6,,0.00,4,Rain,238
2013-8-3,79,71,63,62,58,52,90,64,39,30.17,30.08,30.00,10,10,10,10,6,,0.00,1,,2
2013-8-4,81,68,56,60,56,50,91,65,36,30.21,30.16,30.09,10,10,10,7,5,,0.00,0,,79
2013-8-5,81,70,60,71,64,56,91,81,68,30.10,29.96,29.86,10,10,7,10,6,,0.05,3,,154
2013-8-6,89,78,67,72,70,66,95,81,51,29.92,29.86,29.80,10,6,0,18,6,16,0.16,4,Fog-Rain,185
2013-8-7,85,75,65,73,68,61,93,74,50,29.99,29.88,29.80,10,10,5,15,8,20,0.19,2,Rain,325
2013-8-8,81,70,59,64,61,57,92,73,49,30.02,29.99,29.97,10,10,7,10,6,,0.15,1,,17
2013-8-9,82,72,61,68,63,60,94,77,50,30.12,30.04,29.99,10,9,5,16,1,20,0.02,1,Rain,291
2013-8-10,80,69,58,61,56,50,89,65,37,30.20,30.16,30.12,10,10,7,12,5,17,0.02,0,Rain,1
2013-8-11,85,72,58,65,60,56,91,67,42,30.16,30.11,30.03,10,10,10,10,5,,0.00,0,,193
2013-8-12,81,72,64,68,62,56,90,69,42,30.04,29.99,29.95,10,10,10,12,5,17,0.01,2,,302
2013-8-13,76,66,55,60,55,49,88,70,39,30.18,30.10,30.01,10,10,10,10,7,,0.06,1,,13
2013-8-14,77,62,48,57,49,41,92,65,31,30.25,30.19,30.15,10,9,2,6,2,,0.00,1,,61
2013-8-15,75,66,57,56,52,48,90,65,39,30.18,30.15,30.11,10,10,7,10,2,,0.03,2,,129
2013-8-16,80,66,52,59,53,50,92,65,35,30.20,30.17,30.15,10,10,7,9,4,,0.27,1,,38
2013-8-17,81,67,53,59,55,51,94,66,35,30.22,30.18,30.15,10,10,2,10,4,17,0.00,1,,71
2013-8-18,83,68,54,61,56,51,92,68,38,30.22,30.16,30.10,10,10,7,8,2,,0.00,1,,131
2013-8-19,86,72,58,64,61,57,94,71,43,30.13,30.09,30.03,10,8,2,13,4,,0.00,0,,178
2013-8-20,88,75,62,66,63,60,93,68,40,30.10,30.05,30.00,10,9,2,13,7,17,0.00,0,,171
2013-8-21,90,78,66,69,65,62,89,67,41,30.08,30.04,29.99,10,10,7,13,8,20,0.00,1,,191
2013-8-22,80,74,68,69,67,64,92,77,62,30.12,30.07,30.03,10,9,5,15,6,21,0.02,1,,159
2013-8-23,87,76,64,68,65,63,94,73,45,30.15,30.12,30.08,10,9,2,9,5,,0.00,2,,93
2013-8-24,89,78,66,69,66,63,90,71,49,30.21,30.16,30.13,10,10,7,13,7,16,0.00,1,,139
2013-8-25,92,80,68,68,64,55,86,63,29,30.25,30.18,30.14,10,10,7,13,8,18,0.00,0,,178
2013-8-26,95,80,65,70,65,62,89,63,34,30.17,30.10,30.00,10,10,5,12,7,17,0.00,0,,207
2013-8-27,96,83,70,70,65,58,91,59,28,30.03,29.97,29.90,10,10,7,20,9,26,0.00,0,,215
2013-8-28,97,83,70,74,65,58,90,57,28,30.00,29.97,29.95,10,10,2,13,7,16,0.00,0,Rain,262
2013-8-29,94,84,73,75,72,66,94,73,39,30.06,30.01,29.96,10,7,0,9,3,,0.00,1,Fog,94
2013-8-30,99,86,74,75,70,58,94,67,25,29.96,29.87,29.78,10,8,2,10,5,17,0.09,1,,193
2013-8-31,88,80,70,70,69,67,91,70,51,29.83,29.80,29.77,10,10,4,10,6,,0.00,0,,337